Latest Weather Observations for Temora

IDN60801

Issued at 10:03 am EST Friday 29 July 2016 (issued every 30 minutes, with the page automatically refreshed every 10 minutes)

About weather observations | Map of weather stations | Latest weather observations for NSW | Other Formats
Station Details ID: 073151 Name: TEMORA AIRPORT Lat: -34.43 Lon: 147.51 Height: 280.5 m
Data from the previous 72 hours. | See also: Recent months at Temora
Date/Time
EST
Temp
°C
App
Temp
°C
Dew
Point
°C
Rel
Hum
%
Delta-T
°C
Wind Press
QNH
hPa
Press
MSL
hPa
Rain since
9am
mm
Dir  Spd
km/h
Gust
km/h
Spd
kts
Gust
kts
29/10:00am 8.7 4.4 7.0 89 0.8 WSW 19 26 10 14 1026.5 1027.0 0.0
29/09:30am 8.6 4.8 7.4 92 0.6 SW 17 22 9 12 1026.4 1026.9 0.0
29/09:00am 8.0 4.6 7.7 98 0.1 WSW 15 20 8 11 1026.5 1027.0 1.0
29/08:30am 7.6 4.6 7.5 99 0.0 W 13 17 7 9 1026.4 1026.9 1.0
29/08:00am 7.1 4.7 7.0 99 0.0 WNW 9 11 5 6 1026.4 1026.9 1.0
29/07:30am 7.0 5.0 6.9 99 0.0 WNW 7 9 4 5 1026.3 1026.8 0.6
29/07:00am 7.0 5.1 6.9 99 0.0 NW 6 7 3 4 1026.3 1026.8 0.6
29/06:30am 6.7 5.9 6.6 99 0.0 CALM 0 0 0 0 1026.2 1026.7 0.4
29/06:00am 6.8 6.0 6.7 99 0.0 CALM 0 0 0 0 1026.1 1026.6 0.4
29/05:30am 6.5 4.9 6.4 99 0.0 NNW 4 6 2 3 1025.7 1026.3 0.4
29/05:00am 6.6 4.7 6.5 99 0.0 WNW 6 7 3 4 1025.5 1026.1 0.4
29/04:30am 7.0 5.1 6.9 99 0.0 WNW 6 7 3 4 1025.4 1026.0 0.2
29/04:00am 7.0 5.0 6.9 99 0.0 W 7 9 4 5 1025.3 1025.9 0.2
29/03:30am 6.9 5.0 6.8 99 0.0 W 6 7 3 4 1025.3 1025.9 0.2
29/03:00am 6.8 4.9 6.7 99 0.0 W 6 7 3 4 1025.5 1026.1 0.2
29/02:30am 7.0 5.0 6.9 99 0.0 WNW 7 11 4 6 1025.8 1026.4 0.2
29/02:00am 6.9 4.8 6.8 99 0.0 WNW 7 11 4 6 1025.9 1026.5 0.0
29/01:30am 6.7 4.6 6.6 99 0.0 WNW 7 9 4 5 1026.1 1026.6 0.0
29/01:00am 6.4 4.2 6.3 99 0.0 W 7 9 4 5 1026.3 1026.8 0.0
29/12:30am 6.1 3.5 6.0 99 0.0 W 9 11 5 6 1026.5 1027.0 0.0
29/12:00am 5.7 4.7 5.6 99 0.0 CALM 0 0 0 0 1026.5 1027.0 0.0
 
Date/Time
EST
Temp
°C
App
Temp
°C
Dew
Point
°C
Rel
Hum
%
Delta-T
°C
Wind Press
QNH
hPa
Press
MSL
hPa
Rain since
9am
mm
Dir  Spd
km/h
Gust
km/h
Spd
kts
Gust
kts
28/11:30pm 5.6 4.6 5.5 99 0.0 CALM 0 0 0 0 1026.7 1027.2 0.0
28/11:00pm 5.9 3.8 5.8 99 0.0 WSW 6 6 3 3 1026.8 1027.3 0.0
28/10:30pm 5.8 4.1 5.7 99 0.0 SW 4 7 2 4 1026.9 1027.4 0.0
28/10:00pm 5.6 3.4 5.5 99 0.0 WSW 6 7 3 4 1027.3 1027.8 0.0
28/09:30pm 6.1 4.7 5.7 97 0.2 WSW 2 6 1 3 1027.5 1028.0 0.0
28/09:00pm 6.5 4.3 6.1 97 0.2 WSW 7 9 4 5 1027.3 1027.8 0.0
28/08:30pm 7.0 4.5 6.6 97 0.2 WSW 9 11 5 6 1027.5 1028.0 0.0
28/08:00pm 6.9 4.4 6.5 97 0.2 WSW 9 11 5 6 1027.5 1028.0 0.0
28/07:30pm 6.7 4.5 6.3 97 0.2 WSW 7 11 4 6 1027.4 1027.9 0.0
28/07:00pm 6.2 4.1 5.6 96 0.3 W 6 7 3 4 1027.4 1027.9 0.0
28/06:30pm 7.1 4.9 6.0 93 0.5 WNW 7 9 4 5 1027.3 1027.8 0.0
28/06:00pm 8.1 4.8 6.4 89 0.8 WSW 13 19 7 10 1027.1 1027.6 0.0
28/05:30pm 8.7 5.5 5.1 78 1.6 WSW 11 15 6 8 1027.0 1027.5 0.0
28/05:00pm 8.6 4.3 5.4 80 1.5 WSW 17 22 9 12 1027.0 1027.5 0.0
28/04:30pm 8.8 4.9 5.2 78 1.6 WSW 15 20 8 11 1026.8 1027.3 0.0
28/04:00pm 8.9 4.7 5.5 79 1.6 WSW 17 24 9 13 1026.8 1027.3 0.0
28/03:30pm 9.0 4.7 5.2 77 1.7 WSW 17 22 9 12 1026.9 1027.4 0.0
28/03:00pm 9.3 5.1 5.5 77 1.7 WSW 17 22 9 12 1026.7 1027.2 0.0
28/02:30pm 9.9 5.7 5.9 76 1.9 W 17 22 9 12 1026.7 1027.2 0.0
28/02:00pm 9.7 5.4 5.3 74 2.0 SW 17 24 9 13 1026.7 1027.2 0.0
28/01:30pm 9.9 5.6 5.3 73 2.1 SW 17 24 9 13 1026.9 1027.4 0.0
28/01:00pm 10.1 5.6 6.1 76 1.9 SW 19 24 10 13 1027.1 1027.6 0.0
28/12:30pm 9.8 5.2 5.4 74 2.0 WSW 19 24 10 13 1027.5 1028.0 0.0
28/12:00pm 9.8 5.6 5.6 75 1.9 SW 17 28 9 15 1027.8 1028.4 0.0
28/11:30am 9.7 5.5 5.5 75 1.9 SW 17 24 9 13 1028.3 1028.9 0.0
28/11:00am 9.8 6.0 5.8 76 1.9 WSW 15 20 8 11 1028.6 1029.2 0.0
28/10:30am 8.7 4.9 5.8 82 1.3 SW 15 22 8 12 1028.8 1029.4 0.0
28/10:00am 8.2 5.3 6.7 90 0.7 WSW 11 17 6 9 1028.6 1029.2 0.0
28/09:30am 6.5 4.5 6.4 99 0.0 W 6 9 3 5 1028.4 1029.0 0.0
28/09:00am 5.1 4.0 5.0 99 0.0 CALM 0 0 0 0 1028.3 1028.9 0.8
28/08:30am 4.2 2.9 4.1 99 0.0 CALM 0 0 0 0 1028.1 1028.7 0.8
28/08:00am 3.3 1.5 3.2 99 0.0 SW 2 6 1 3 1027.5 1028.0 0.8
28/07:30am 2.7 1.1 2.6 99 0.0 CALM 0 0 0 0 1027.2 1027.7 0.8
28/07:00am 1.6 -1.5 1.5 99 0.0 W 7 9 4 5 1026.9 1027.4 0.8
28/06:30am 2.1 -0.9 2.0 99 0.0 W 7 9 4 5 1026.7 1027.2 0.8
28/06:00am 2.8 0.5 2.7 99 0.0 NW 4 7 2 4 1026.3 1026.8 0.8
28/05:30am 3.2 0.6 3.1 99 0.0 NNE 6 7 3 4 1026.1 1026.6 0.8
28/05:00am 3.5 0.7 3.4 99 0.0 NNE 7 9 4 5 1025.6 1026.2 0.8
28/04:30am 2.9 0.2 2.8 99 0.0 WSW 6 7 3 4 1025.2 1025.8 0.8
28/04:00am 3.1 1.6 2.8 98 0.1 CALM 0 2 0 1 1025.2 1025.8 0.8
28/03:30am 3.4 1.2 3.1 98 0.1 WSW 4 7 2 4 1024.9 1025.5 0.8
28/03:00am 4.1 2.4 3.8 98 0.1 NW 2 7 1 4 1024.9 1025.5 0.8
28/02:30am 4.4 2.7 3.8 96 0.3 WSW 2 7 1 4 1024.7 1025.3 0.8
28/02:00am 5.3 2.4 4.6 95 0.3 WSW 9 13 5 7 1024.8 1025.4 0.8
28/01:30am 5.7 2.1 5.1 96 0.3 WSW 13 15 7 8 1024.8 1025.4 0.8
28/01:00am 6.1 2.6 5.5 96 0.3 W 13 17 7 9 1024.8 1025.4 0.8
28/12:30am 6.4 3.6 5.2 92 0.5 W 9 11 5 6 1025.0 1025.6 0.6
28/12:00am 7.4 4.0 5.7 89 0.8 WSW 13 17 7 9 1024.7 1025.3 0.6
 
Date/Time
EST
Temp
°C
App
Temp
°C
Dew
Point
°C
Rel
Hum
%
Delta-T
°C
Wind Press
QNH
hPa
Press
MSL
hPa
Rain since
9am
mm
Dir  Spd
km/h
Gust
km/h
Spd
kts
Gust
kts
27/11:30pm 8.5 4.9 6.6 88 0.9 SW 15 20 8 11 1024.8 1025.4 0.6
27/11:00pm 8.5 5.4 7.3 92 0.6 WSW 13 20 7 11 1024.6 1025.2 0.6
27/10:30pm 8.6 5.1 7.4 92 0.6 WSW 15 20 8 11 1024.2 1024.7 0.6
27/10:00pm 8.6 5.2 7.5 93 0.5 WSW 15 19 8 10 1023.9 1024.4 0.6
27/09:30pm 8.6 5.6 7.8 95 0.4 W 13 19 7 10 1023.7 1024.2 0.6
27/09:00pm 8.6 5.2 7.8 95 0.4 W 15 20 8 11 1023.4 1023.9 0.6
27/08:30pm 8.5 5.5 7.9 96 0.3 WNW 13 19 7 10 1023.4 1023.9 0.6
27/08:00pm 8.4 5.5 8.0 97 0.2 W 13 19 7 10 1023.2 1023.7 0.6
27/07:30pm 7.9 5.1 7.1 95 0.4 W 11 13 6 7 1022.9 1023.4 0.6
27/07:00pm 8.8 5.5 8.0 95 0.4 W 15 22 8 12 1022.4 1022.9 0.6
27/06:30pm 9.0 6.8 7.9 93 0.5 WSW 9 13 5 7 1021.8 1022.4 0.6
27/06:00pm 9.1 6.0 7.4 89 0.8 W 13 17 7 9 1021.3 1021.8 0.6
27/05:30pm 9.0 5.1 7.3 89 0.8 W 17 20 9 11 1020.8 1021.3 0.6
27/05:00pm 9.1 4.6 7.1 87 1.0 WNW 20 30 11 16 1020.6 1021.1 0.6
27/04:30pm 10.4 6.5 7.1 80 1.6 W 17 26 9 14 1019.9 1020.4 0.6
27/04:00pm 10.3 6.0 7.2 81 1.5 W 19 26 10 14 1019.2 1019.7 0.6
27/03:30pm 10.4 5.5 7.1 80 1.6 W 22 26 12 14 1018.9 1019.4 0.6
27/03:00pm 10.0 6.1 6.9 81 1.5 W 17 26 9 14 1018.6 1019.0 0.6
27/02:30pm 10.4 5.6 7.3 81 1.5 W 22 32 12 17 1018.1 1018.6 0.6
27/02:00pm 9.9 6.3 8.5 91 0.7 W 17 26 9 14 1017.8 1018.3 0.6
27/01:30pm 9.8 5.4 7.4 85 1.2 W 20 28 11 15 1017.6 1018.1 0.4
27/01:00pm 10.4 5.3 7.6 83 1.4 W 24 32 13 17 1017.5 1018.0 0.4
27/12:30pm 9.4 3.9 7.5 88 0.9 W 26 35 14 19 1017.7 1018.2 0.4
27/12:00pm 9.9 5.3 8.0 88 0.9 W 22 33 12 18 1017.5 1018.0 0.4
27/11:30am 9.3 4.2 7.7 90 0.8 WSW 24 39 13 21 1017.4 1017.9 0.4
27/11:00am 8.4 3.3 7.5 94 0.4 WSW 24 33 13 18 1017.2 1017.7 0.4
27/10:30am 9.2 3.7 7.5 89 0.8 W 26 37 14 20 1016.7 1017.2 0.0
27/10:00am 8.7 3.2 7.6 93 0.5 W 26 39 14 21 1016.4 1016.9 0.0
27/09:30am 8.7 4.0 7.6 93 0.5 W 22 33 12 18 1015.8 1016.3 0.0
27/09:00am 8.6 3.8 7.4 92 0.6 W 22 35 12 19 1015.6 1016.1 3.0
27/08:30am 8.4 2.9 7.6 95 0.4 W 26 39 14 21 1014.9 1015.3 3.0
27/08:00am 8.1 3.3 7.3 95 0.4 WNW 22 35 12 19 1014.6 1015.1 2.6
27/07:30am 8.6 2.9 6.7 88 0.9 WNW 26 35 14 19 1014.0 1014.5 2.6
27/07:00am 8.4 2.7 6.7 89 0.8 W 26 39 14 21 1013.5 1014.0 2.6
27/06:30am 8.7 3.0 6.8 88 0.9 WNW 26 43 14 23 1013.1 1013.6 2.6
27/06:00am 8.4 4.2 7.3 93 0.5 WNW 19 30 10 16 1012.8 1013.3 2.6
27/05:30am 8.4 3.3 7.5 94 0.4 WNW 24 32 13 17 1012.2 1012.6 2.6
27/05:00am 8.1 3.0 7.7 97 0.2 NW 24 35 13 19 1011.7 1012.1 2.4
27/04:30am 8.4 2.9 7.5 94 0.4 NW 26 35 14 19 1011.7 1012.1 1.8
27/04:00am 8.3 3.5 7.2 93 0.5 NNW 22 30 12 16 1011.7 1012.1 1.4
27/03:30am 8.6 3.3 6.9 89 0.8 NNW 24 32 13 17 1011.6 1012.0 0.4
27/03:00am 8.7 3.1 7.0 89 0.8 N 26 33 14 18 1011.6 1012.0 0.4
27/02:30am 8.4 4.5 7.0 91 0.7 N 17 20 9 11 1012.1 1012.5 0.4
27/02:00am 7.2 4.6 6.3 94 0.4 NNE 9 13 5 7 1012.6 1013.1 0.4
27/01:30am 7.0 3.6 5.9 93 0.5 N 13 19 7 10 1012.8 1013.3 0.4
27/01:00am 7.5 3.9 6.9 96 0.3 NNE 15 17 8 9 1013.3 1013.8 0.4
27/12:30am 6.9 3.6 6.2 95 0.3 NNE 13 15 7 8 1013.5 1014.0 0.4
27/12:00am 7.2 3.8 6.1 93 0.5 N 13 17 7 9 1013.9 1014.4 0.4
 
Date/Time
EST
Temp
°C
App
Temp
°C
Dew
Point
°C
Rel
Hum
%
Delta-T
°C
Wind Press
QNH
hPa
Press
MSL
hPa
Rain since
9am
mm
Dir  Spd
km/h
Gust
km/h
Spd
kts
Gust
kts
26/11:30pm 8.1 4.8 6.4 89 0.8 N 13 19 7 10 1014.1 1014.6 0.4
26/11:00pm 8.0 5.2 6.9 93 0.5 N 11 13 6 7 1014.6 1015.1 0.4
26/10:30pm 7.8 4.1 6.4 91 0.7 N 15 20 8 11 1014.7 1015.2 0.4
26/10:00pm 8.2 5.4 7.0 92 0.6 NNE 11 13 6 7 1015.0 1015.4 0.4
26/09:30pm 8.0 6.0 7.1 94 0.4 N 7 9 4 5 1015.3 1015.7 0.4
26/09:00pm 8.0 5.6 7.2 95 0.4 NNE 9 11 5 6 1015.7 1016.2 0.4
26/08:30pm 7.7 5.6 6.8 94 0.4 N 7 9 4 5 1015.8 1016.3 0.4
26/08:00pm 7.9 5.5 6.8 93 0.5 NNW 9 9 5 5 1015.8 1016.3 0.4
26/07:30pm 8.0 5.5 6.6 91 0.7 NNW 9 13 5 7 1015.8 1016.3 0.4
26/07:00pm 8.5 5.6 6.6 88 0.9 WNW 11 13 6 7 1016.1 1016.6 0.0
26/06:30pm 8.6 5.6 5.9 83 1.2 NNW 11 13 6 7 1015.5 1015.9 0.0
26/06:00pm 9.0 5.5 5.4 78 1.7 NNW 13 17 7 9 1015.4 1015.8 0.0
26/05:30pm 8.9 5.2 4.7 75 1.9 NNW 13 17 7 9 1015.3 1015.7 0.0
26/05:00pm 10.0 6.1 5.2 72 2.2 NW 15 19 8 10 1015.3 1015.7 0.0
26/04:30pm 10.6 7.3 4.7 67 2.7 WNW 11 17 6 9 1015.2 1015.6 0.0
26/04:00pm 10.4 5.9 4.3 66 2.8 WNW 17 20 9 11 1015.4 1015.8 0.0
26/03:30pm 10.9 6.0 4.1 63 3.1 WNW 19 28 10 15 1015.5 1015.9 0.0
26/03:00pm 11.0 6.5 4.0 62 3.2 WNW 17 26 9 14 1015.8 1016.3 0.0
26/02:30pm 10.6 5.6 3.6 62 3.1 WNW 19 26 10 14 1016.0 1016.5 0.0
26/02:00pm 11.4 6.9 4.2 61 3.3 W 17 22 9 12 1016.1 1016.6 0.0
26/01:30pm 11.3 6.9 4.5 63 3.1 WNW 17 24 9 13 1016.5 1017.0 0.0
26/01:00pm 10.3 5.4 4.0 65 2.8 WNW 19 24 10 13 1017.0 1017.5 0.0
26/12:30pm 10.7 5.7 3.7 62 3.1 W 19 26 10 14 1017.3 1017.8 0.0
26/12:00pm 10.6 5.7 4.1 64 2.9 WNW 19 28 10 15 1017.6 1018.1 0.0
26/11:30am 10.2 5.4 4.6 68 2.5 WNW 19 26 10 14 1018.1 1018.6 0.0
26/11:00am 9.7 5.3 4.7 71 2.3 W 17 22 9 12 1018.6 1019.0 0.0
26/10:30am 9.0 4.7 5.4 78 1.7 W 17 22 9 12 1019.0 1019.5 0.0

Other Formats:

Comma delimited format used in spreadsheet applications
http://www.bom.gov.au/fwo/IDN60801/IDN60801.95722.axf

JavaScript Object Notation format (JSON) in row-major order
http://www.bom.gov.au/fwo/IDN60801/IDN60801.95722.json